createdAt,value
2022-12-07T00:00:18.274Z,12.90
2022-12-07T00:02:46.101Z,12.80
2022-12-07T00:05:16.210Z,13.00
2022-12-07T00:07:51.067Z,13.00
2022-12-07T00:10:37.040Z,13.00
2022-12-07T00:13:07.721Z,12.90
2022-12-07T00:15:49.167Z,12.70
2022-12-07T00:18:16.991Z,12.80
2022-12-07T00:20:44.793Z,12.70
2022-12-07T00:23:12.602Z,12.70
2022-12-07T00:25:43.471Z,12.70
2022-12-07T00:28:11.802Z,12.50
2022-12-07T00:30:39.630Z,12.80
2022-12-07T00:33:08.802Z,12.90
2022-12-07T00:35:39.384Z,12.80
2022-12-07T00:38:09.593Z,12.90
2022-12-07T00:40:40.277Z,12.90
2022-12-07T00:43:08.131Z,13.00
2022-12-07T00:45:39.130Z,12.90
2022-12-07T00:48:20.324Z,13.00
2022-12-07T00:50:48.280Z,13.00
2022-12-07T00:53:17.080Z,13.00
2022-12-07T00:55:50.975Z,13.00
2022-12-07T00:58:25.565Z,13.00
2022-12-07T01:01:01.461Z,13.10
2022-12-07T01:03:38.813Z,13.10
2022-12-07T01:06:07.414Z,13.00
2022-12-07T01:08:37.975Z,13.00
2022-12-07T01:11:09.983Z,13.10
2022-12-07T01:13:38.261Z,13.20
2022-12-07T01:16:08.517Z,13.20
2022-12-07T01:18:38.883Z,13.20
2022-12-07T01:21:09.272Z,13.10
2022-12-07T01:23:40.509Z,13.10
2022-12-07T01:26:24.913Z,13.10
2022-12-07T01:28:55.861Z,13.00
2022-12-07T01:31:26.172Z,13.00
2022-12-07T01:34:04.348Z,13.00
2022-12-07T01:36:38.248Z,12.90
2022-12-07T01:39:14.998Z,12.90
2022-12-07T01:41:44.482Z,12.80
2022-12-07T01:44:24.172Z,12.90
2022-12-07T01:46:53.776Z,12.90
2022-12-07T01:49:30.549Z,12.80
2022-12-07T01:52:07.990Z,12.70
2022-12-07T01:54:37.856Z,12.60
2022-12-07T01:57:08.870Z,12.70
2022-12-07T01:59:55.674Z,12.80
2022-12-07T02:02:27.829Z,12.80
2022-12-07T02:05:08.343Z,12.80
2022-12-07T02:07:40.681Z,13.00
2022-12-07T02:10:25.872Z,13.10
2022-12-07T02:13:12.730Z,13.20
2022-12-07T02:16:08.374Z,13.00
2022-12-07T02:21:42.150Z,13.00
2022-12-07T02:24:38.133Z,13.30
2022-12-07T02:27:47.665Z,13.40
2022-12-07T02:30:21.109Z,13.30
2022-12-07T02:32:57.707Z,13.30
2022-12-07T02:35:34.344Z,13.40
2022-12-07T02:38:10.502Z,13.30
2022-12-07T02:40:42.440Z,13.20
2022-12-07T02:43:19.398Z,13.30
2022-12-07T02:45:50.368Z,13.20
2022-12-07T02:48:20.591Z,13.10
2022-12-07T02:50:56.394Z,13.00
2022-12-07T02:53:34.115Z,12.90
2022-12-07T02:56:05.821Z,13.10
2022-12-07T02:58:52.181Z,13.10
2022-12-07T03:01:34.629Z,13.10
2022-12-07T03:04:23.531Z,13.20
2022-12-07T03:09:59.899Z,13.30
2022-12-07T03:12:44.507Z,13.20
2022-12-07T03:15:16.822Z,13.20
2022-12-07T03:17:53.437Z,13.20
2022-12-07T03:20:34.638Z,13.20
2022-12-07T03:23:08.769Z,13.20
2022-12-07T03:25:44.424Z,13.20
2022-12-07T03:28:18.514Z,13.00
2022-12-07T03:30:51.289Z,13.00
2022-12-07T03:33:38.278Z,13.00
2022-12-07T03:36:10.855Z,12.90
2022-12-07T03:38:42.810Z,12.90
2022-12-07T03:41:18.524Z,12.80
2022-12-07T03:43:46.770Z,12.90
2022-12-07T03:46:22.703Z,13.00
2022-12-07T03:49:10.671Z,12.90
2022-12-07T03:51:45.023Z,12.90
2022-12-07T03:54:21.177Z,12.90
2022-12-07T03:56:50.464Z,13.00
2022-12-07T03:59:21.714Z,12.90
2022-12-07T04:01:55.838Z,13.00
2022-12-07T04:04:28.050Z,12.90
2022-12-07T04:06:58.567Z,13.00
2022-12-07T04:09:41.673Z,12.80
2022-12-07T04:12:09.738Z,12.80
2022-12-07T04:14:40.602Z,12.70
2022-12-07T04:17:14.334Z,12.90
2022-12-07T04:19:52.389Z,12.90
2022-12-07T04:22:23.422Z,13.00
2022-12-07T04:24:51.308Z,13.10
2022-12-07T04:27:25.037Z,13.20
2022-12-07T04:29:52.896Z,13.10
2022-12-07T04:32:29.919Z,13.10
2022-12-07T04:35:19.838Z,13.00
2022-12-07T04:37:47.668Z,13.00
2022-12-07T04:40:15.522Z,13.10
2022-12-07T04:43:05.697Z,13.20
2022-12-07T04:45:36.333Z,13.10
2022-12-07T04:50:53.822Z,13.10
2022-12-07T04:53:21.781Z,13.20
2022-12-07T04:55:52.745Z,13.20
2022-12-07T04:58:25.489Z,13.30
2022-12-07T05:00:56.349Z,13.40
2022-12-07T05:03:27.068Z,13.20
2022-12-07T05:06:04.794Z,13.20
2022-12-07T05:08:35.286Z,13.30
2022-12-07T05:11:07.794Z,13.30
2022-12-07T05:13:41.495Z,13.30
2022-12-07T05:16:15.567Z,13.40
2022-12-07T05:18:58.287Z,13.50
2022-12-07T05:21:30.430Z,13.50
2022-12-07T05:24:01.737Z,13.50
2022-12-07T05:26:29.879Z,13.40
2022-12-07T05:29:10.152Z,13.40
2022-12-07T05:31:38.029Z,13.40
2022-12-07T05:34:09.378Z,13.40
2022-12-07T05:36:39.950Z,13.60
2022-12-07T05:39:08.154Z,13.50
2022-12-07T05:41:56.404Z,13.40
2022-12-07T05:44:24.249Z,13.30
2022-12-07T05:46:54.976Z,13.60
2022-12-07T05:49:28.866Z,13.60
2022-12-07T05:52:00.945Z,13.60
2022-12-07T05:54:30.616Z,13.60
2022-12-07T05:57:07.339Z,13.50
2022-12-07T05:59:34.325Z,13.50
2022-12-07T06:02:03.832Z,13.40
2022-12-07T06:04:33.826Z,13.30
2022-12-07T06:07:06.530Z,13.40
2022-12-07T06:09:37.660Z,13.50
2022-12-07T06:12:32.504Z,13.50
2022-12-07T06:15:02.855Z,13.40
2022-12-07T06:17:30.693Z,13.40
2022-12-07T06:19:58.626Z,13.50
2022-12-07T06:22:30.103Z,13.50
2022-12-07T06:24:57.928Z,13.40
2022-12-07T06:27:28.501Z,13.40
2022-12-07T06:29:56.350Z,13.30
2022-12-07T06:32:27.114Z,13.50
2022-12-07T06:34:57.689Z,13.80
2022-12-07T06:37:26.879Z,14.10
2022-12-07T06:40:00.981Z,13.90
2022-12-07T06:42:31.887Z,13.70
2022-12-07T06:45:02.633Z,13.50
2022-12-07T06:47:46.372Z,13.20
2022-12-07T06:50:14.956Z,13.30
2022-12-07T06:52:44.161Z,13.40
2022-12-07T06:55:12.002Z,13.40
2022-12-07T06:57:42.837Z,13.10
2022-12-07T07:00:21.270Z,13.00
2022-12-07T07:02:55.551Z,12.90
2022-12-07T07:05:23.689Z,13.00
2022-12-07T07:10:47.928Z,13.10
2022-12-07T07:13:15.779Z,13.20
2022-12-07T07:15:47.047Z,13.00
2022-12-07T07:18:14.921Z,13.10
2022-12-07T07:20:42.787Z,13.20
2022-12-07T07:23:12.007Z,13.20
2022-12-07T07:25:39.961Z,13.20
2022-12-07T07:28:21.696Z,13.10
2022-12-07T07:30:55.326Z,13.10
2022-12-07T07:33:30.512Z,13.00
2022-12-07T07:35:58.367Z,13.00
2022-12-07T07:38:30.070Z,12.90
2022-12-07T07:41:01.026Z,12.90
2022-12-07T07:43:28.864Z,12.80
2022-12-07T07:45:56.785Z,12.80
2022-12-07T07:48:26.217Z,12.80
2022-12-07T07:50:54.093Z,12.70
2022-12-07T07:53:24.705Z,12.50
2022-12-07T07:55:55.337Z,12.60
2022-12-07T07:58:29.695Z,12.70
2022-12-07T08:01:08.290Z,12.60
2022-12-07T08:03:39.073Z,12.50
2022-12-07T08:06:07.710Z,12.50
2022-12-07T08:08:38.736Z,12.40
2022-12-07T08:11:11.421Z,12.60
2022-12-07T08:13:39.610Z,12.70
2022-12-07T08:16:10.158Z,13.20
2022-12-07T08:18:44.629Z,13.20
2022-12-07T08:21:14.774Z,13.10
2022-12-07T08:23:42.746Z,12.80
2022-12-07T08:26:17.374Z,12.70
2022-12-07T08:28:46.570Z,12.60
2022-12-07T08:31:22.292Z,12.50
2022-12-07T08:33:59.702Z,12.60
2022-12-07T08:36:33.532Z,12.60
2022-12-07T08:41:59.574Z,12.80
2022-12-07T08:44:33.265Z,12.90
2022-12-07T08:47:04.739Z,13.00
2022-12-07T08:49:50.867Z,13.10
2022-12-07T08:52:25.101Z,13.30
2022-12-07T08:54:52.950Z,13.40
2022-12-07T08:57:31.518Z,13.30
2022-12-07T09:00:05.676Z,13.40
2022-12-07T09:02:33.871Z,13.40
2022-12-07T09:05:01.711Z,13.30
2022-12-07T09:07:34.175Z,13.30
2022-12-07T09:10:02.627Z,13.40
2022-12-07T09:12:32.097Z,13.50
2022-12-07T09:15:09.258Z,13.70
2022-12-07T09:17:38.527Z,13.60
2022-12-07T09:20:10.119Z,13.60
2022-12-07T09:22:38.005Z,13.70
2022-12-07T09:25:12.192Z,13.90
2022-12-07T09:27:41.422Z,13.80
2022-12-07T09:30:10.012Z,13.90
2022-12-07T09:32:40.621Z,13.90
2022-12-07T09:35:11.480Z,14.00
2022-12-07T09:37:39.313Z,13.90
2022-12-07T09:40:08.647Z,13.90
2022-12-07T09:42:40.461Z,14.10
2022-12-07T09:45:17.715Z,14.20
2022-12-07T09:47:46.323Z,14.10
2022-12-07T09:50:20.946Z,13.70
2022-12-07T09:52:50.382Z,13.60
2022-12-07T09:55:24.751Z,13.50
2022-12-07T09:57:56.289Z,13.60
2022-12-07T10:00:29.370Z,13.60
2022-12-07T10:02:59.035Z,13.80
2022-12-07T10:05:32.064Z,13.90
2022-12-07T10:07:59.997Z,13.80
2022-12-07T10:10:38.528Z,13.60
2022-12-07T10:13:11.314Z,13.60
2022-12-07T10:15:49.759Z,13.50
2022-12-07T10:18:27.829Z,13.70
2022-12-07T10:21:15.194Z,13.60
2022-12-07T10:23:44.717Z,13.50
2022-12-07T10:26:27.095Z,13.50
2022-12-07T10:28:55.154Z,14.00
2022-12-07T10:31:31.075Z,14.10
2022-12-07T10:34:03.084Z,14.30
2022-12-07T10:36:37.677Z,14.30
2022-12-07T10:39:13.381Z,14.30
2022-12-07T10:41:56.075Z,14.20
2022-12-07T10:44:25.466Z,14.20
2022-12-07T10:47:16.890Z,14.10
2022-12-07T10:50:28.288Z,14.10
2022-12-07T10:53:19.593Z,13.90
2022-12-07T10:56:05.979Z,14.00
2022-12-07T10:58:54.170Z,14.10
2022-12-07T11:01:34.165Z,14.20
2022-12-07T11:04:35.803Z,14.20
2022-12-07T11:07:16.180Z,14.20
2022-12-07T11:10:10.061Z,14.20
2022-12-07T11:13:01.266Z,14.10
2022-12-07T11:15:35.724Z,14.10
2022-12-07T11:18:09.245Z,14.20
2022-12-07T11:20:47.546Z,14.10
2022-12-07T11:23:34.127Z,14.10
2022-12-07T11:26:14.061Z,14.10
2022-12-07T11:29:10.514Z,14.20
2022-12-07T11:31:55.691Z,14.20
2022-12-07T11:34:35.855Z,14.20
2022-12-07T11:37:13.700Z,14.40
2022-12-07T11:39:46.390Z,14.40
2022-12-07T11:42:24.411Z,14.40
2022-12-07T11:45:01.858Z,14.40
2022-12-07T11:47:40.481Z,14.40
2022-12-07T11:50:28.444Z,14.10
2022-12-07T11:53:18.351Z,14.20
2022-12-07T11:55:54.605Z,14.10
2022-12-07T11:58:44.220Z,14.10
2022-12-07T12:01:28.586Z,14.00
2022-12-07T12:04:08.394Z,13.90
2022-12-07T12:06:37.005Z,13.90
2022-12-07T12:15:47.649Z,14.10
2022-12-07T12:18:48.552Z,14.10
2022-12-07T12:21:20.065Z,14.20
2022-12-07T12:23:56.116Z,14.10
2022-12-07T12:26:39.398Z,14.10
2022-12-07T12:29:24.279Z,14.00
2022-12-07T12:32:16.917Z,14.20
2022-12-07T12:35:01.825Z,14.40
2022-12-07T12:37:45.869Z,14.40
2022-12-07T12:40:56.380Z,14.30
2022-12-07T12:43:57.363Z,14.30
2022-12-07T12:46:51.988Z,14.20
2022-12-07T12:49:40.939Z,14.00
2022-12-07T12:52:50.872Z,14.00
2022-12-07T12:55:29.084Z,14.10
2022-12-07T12:58:34.371Z,14.20
2022-12-07T13:01:40.811Z,14.20
2022-12-07T13:04:36.354Z,14.00
2022-12-07T13:07:15.107Z,13.80
2022-12-07T13:09:47.219Z,13.70
2022-12-07T13:12:21.227Z,13.80
2022-12-07T13:15:30.696Z,13.70
2022-12-07T13:18:05.997Z,14.00
2022-12-07T13:20:53.558Z,13.90
2022-12-07T13:23:32.424Z,13.80
2022-12-07T13:26:16.910Z,14.00
2022-12-07T13:28:53.452Z,14.20
2022-12-07T13:31:40.237Z,14.30
2022-12-07T13:34:33.850Z,14.10
2022-12-07T13:37:04.040Z,14.10
2022-12-07T13:39:34.749Z,14.10
2022-12-07T13:42:22.890Z,14.20
2022-12-07T13:44:53.893Z,14.20
2022-12-07T13:50:26.861Z,14.30
2022-12-07T13:53:02.538Z,14.40
2022-12-07T13:55:49.477Z,14.40
2022-12-07T13:58:29.096Z,14.40
2022-12-07T14:00:57.205Z,14.30
2022-12-07T14:03:34.061Z,14.30
2022-12-07T14:06:22.675Z,14.30
2022-12-07T14:08:55.839Z,14.40
2022-12-07T14:11:33.452Z,14.30
2022-12-07T14:14:03.454Z,14.30
2022-12-07T14:16:32.960Z,14.20
2022-12-07T14:19:02.970Z,14.30
2022-12-07T14:21:36.083Z,14.40
2022-12-07T14:24:17.130Z,14.40
2022-12-07T14:26:48.267Z,14.50
2022-12-07T14:29:39.444Z,14.50
2022-12-07T14:32:30.161Z,14.60
2022-12-07T14:35:12.715Z,14.50
2022-12-07T14:37:51.636Z,14.50
2022-12-07T14:40:21.542Z,14.20
2022-12-07T14:42:52.264Z,14.20
2022-12-07T14:45:22.886Z,14.00
2022-12-07T14:53:41.300Z,14.30
2022-12-07T14:56:12.646Z,14.40
2022-12-07T14:58:40.657Z,14.60
2022-12-07T15:01:08.996Z,14.50
2022-12-07T15:03:38.940Z,14.30
2022-12-07T15:06:07.968Z,13.10
2022-12-07T15:08:48.770Z,13.00
2022-12-07T15:11:22.623Z,13.10
2022-12-07T15:14:17.337Z,12.80
2022-12-07T15:17:08.080Z,12.70
2022-12-07T15:19:36.133Z,12.80
2022-12-07T15:22:06.412Z,12.80
2022-12-07T15:24:38.822Z,12.70
2022-12-07T15:27:06.742Z,12.60
2022-12-07T15:29:40.696Z,12.70
2022-12-07T15:32:14.740Z,12.60
2022-12-07T15:34:43.758Z,12.50
2022-12-07T15:37:14.661Z,12.60
2022-12-07T15:39:44.421Z,12.80
2022-12-07T15:42:12.237Z,12.80
2022-12-07T15:45:10.039Z,12.80
2022-12-07T15:48:26.099Z,12.60
2022-12-07T15:50:34.266Z,12.50
2022-12-07T15:53:02.126Z,12.60
2022-12-07T15:55:31.333Z,12.90
2022-12-07T15:58:05.095Z,13.00
2022-12-07T16:00:38.473Z,12.50
2022-12-07T16:03:12.414Z,12.60
2022-12-07T16:05:40.386Z,12.70
2022-12-07T16:08:14.264Z,12.60
2022-12-07T16:10:46.371Z,12.50
2022-12-07T16:13:14.694Z,12.10
2022-12-07T16:15:54.638Z,12.20
2022-12-07T16:18:22.531Z,12.40
2022-12-07T16:20:50.637Z,12.40
2022-12-07T16:23:24.513Z,12.40
2022-12-07T16:25:57.246Z,12.40
2022-12-07T16:28:25.135Z,12.60
2022-12-07T16:31:15.414Z,12.60
2022-12-07T16:33:44.637Z,12.50
2022-12-07T16:36:14.342Z,12.20
2022-12-07T16:38:43.556Z,11.90
2022-12-07T16:41:18.843Z,11.90
2022-12-07T16:43:46.816Z,12.00
2022-12-07T16:46:16.143Z,12.20
2022-12-07T16:48:59.264Z,12.10
2022-12-07T16:51:27.227Z,12.00
2022-12-07T16:53:55.745Z,11.70
2022-12-07T16:56:27.455Z,12.10
2022-12-07T16:58:59.406Z,12.20
2022-12-07T17:01:29.010Z,12.80
2022-12-07T17:03:58.146Z,13.20
2022-12-07T17:06:28.323Z,13.40
2022-12-07T17:08:59.194Z,12.80
2022-12-07T17:11:32.794Z,12.40
2022-12-07T17:14:27.982Z,12.50
2022-12-07T17:17:01.992Z,12.60
2022-12-07T17:19:29.839Z,12.90
2022-12-07T17:21:57.669Z,12.80
2022-12-07T17:24:25.571Z,12.70
2022-12-07T17:27:01.509Z,12.80
2022-12-07T17:29:32.462Z,12.80
2022-12-07T17:32:03.162Z,12.70
2022-12-07T17:34:43.083Z,12.80
2022-12-07T17:37:10.949Z,12.80
2022-12-07T17:39:45.216Z,13.00
2022-12-07T17:42:32.112Z,13.10
2022-12-07T17:45:06.268Z,12.90
2022-12-07T17:47:34.377Z,13.00
2022-12-07T17:50:07.593Z,12.90
2022-12-07T17:52:56.611Z,13.10
2022-12-07T17:55:24.469Z,13.20
2022-12-07T17:57:56.483Z,13.40
2022-12-07T18:00:24.642Z,13.60
2022-12-07T18:03:01.350Z,13.80
2022-12-07T18:05:31.532Z,13.90
2022-12-07T18:08:02.312Z,13.90
2022-12-07T18:10:30.231Z,14.00
2022-12-07T18:13:13.361Z,13.80
2022-12-07T18:16:00.098Z,13.80
2022-12-07T18:18:28.049Z,13.30
2022-12-07T18:20:55.905Z,13.20
2022-12-07T18:23:26.066Z,13.10
2022-12-07T18:25:56.712Z,13.00
2022-12-07T18:28:31.044Z,13.00
2022-12-07T18:31:14.917Z,13.10
2022-12-07T18:33:44.349Z,12.70
2022-12-07T18:36:16.726Z,12.50
2022-12-07T18:38:45.049Z,12.60
2022-12-07T18:41:14.935Z,12.70
2022-12-07T18:43:44.470Z,12.50
2022-12-07T18:46:13.202Z,12.20
2022-12-07T18:48:41.274Z,12.30
2022-12-07T18:51:11.382Z,12.50
2022-12-07T18:53:42.757Z,12.30
2022-12-07T18:56:14.264Z,12.20
2022-12-07T18:59:10.830Z,12.50
2022-12-07T19:01:39.472Z,12.70
2022-12-07T19:04:13.445Z,12.60
2022-12-07T19:06:45.509Z,12.50
2022-12-07T19:09:20.310Z,12.70
2022-12-07T19:11:56.360Z,12.70
2022-12-07T19:14:27.742Z,12.80
2022-12-07T19:17:02.552Z,13.10
2022-12-07T19:19:33.439Z,12.80
2022-12-07T19:22:04.296Z,12.40
2022-12-07T19:24:51.015Z,12.70
2022-12-07T19:27:19.766Z,12.80
2022-12-07T19:29:52.100Z,12.60
2022-12-07T19:32:23.386Z,12.60
2022-12-07T19:34:55.584Z,12.50
2022-12-07T19:37:32.630Z,12.50
2022-12-07T19:40:08.148Z,12.70
2022-12-07T19:42:38.874Z,12.90
2022-12-07T19:45:11.981Z,13.20
2022-12-07T19:47:42.819Z,13.30
2022-12-07T19:50:11.092Z,13.50
2022-12-07T19:55:23.146Z,13.40
2022-12-07T19:57:53.786Z,13.20
2022-12-07T20:00:28.985Z,13.10
2022-12-07T20:02:59.976Z,12.80
2022-12-07T20:05:27.856Z,12.90
2022-12-07T20:07:55.758Z,12.80
2022-12-07T20:10:26.321Z,12.60
2022-12-07T20:13:19.757Z,12.60
2022-12-07T20:15:51.733Z,12.50
2022-12-07T20:18:22.649Z,12.70
2022-12-07T20:21:00.522Z,12.80
2022-12-07T20:23:38.667Z,12.70
2022-12-07T20:26:09.994Z,12.60
2022-12-07T20:28:46.172Z,12.10
2022-12-07T20:31:19.027Z,12.10
2022-12-07T20:33:52.900Z,12.30
2022-12-07T20:36:23.689Z,12.40
2022-12-07T20:38:54.424Z,11.70
2022-12-07T20:41:59.851Z,11.10
2022-12-07T20:44:27.995Z,11.30
2022-12-07T20:47:12.140Z,11.80
2022-12-07T20:49:40.007Z,11.90
2022-12-07T20:52:07.862Z,12.20
2022-12-07T20:54:44.483Z,12.20
2022-12-07T20:57:15.096Z,12.30
2022-12-07T20:59:48.321Z,12.00
2022-12-07T21:02:23.130Z,12.10
2022-12-07T21:05:04.935Z,12.60
2022-12-07T21:07:32.909Z,12.80
2022-12-07T21:10:04.510Z,12.70
2022-12-07T21:12:34.441Z,12.70
2022-12-07T21:15:06.278Z,12.90
2022-12-07T21:17:39.149Z,13.00
2022-12-07T21:20:13.194Z,13.10
2022-12-07T21:22:47.670Z,13.30
2022-12-07T21:25:21.308Z,13.50
2022-12-07T21:27:49.152Z,13.30
2022-12-07T21:31:05.047Z,13.50
2022-12-07T21:33:32.476Z,13.60
2022-12-07T21:36:03.665Z,13.70
2022-12-07T21:38:32.051Z,13.80
2022-12-07T21:41:00.537Z,13.70
2022-12-07T21:43:31.161Z,13.60
2022-12-07T21:45:59.093Z,13.50
2022-12-07T21:48:32.635Z,13.20
2022-12-07T21:51:08.041Z,13.20
2022-12-07T21:53:38.983Z,13.00
2022-12-07T21:56:15.163Z,12.60
2022-12-07T21:58:43.036Z,12.40
2022-12-07T22:01:17.051Z,12.20
2022-12-07T22:03:57.062Z,12.60
2022-12-07T22:06:28.055Z,12.70
2022-12-07T22:08:57.378Z,12.70
2022-12-07T22:11:31.335Z,12.70
2022-12-07T22:14:16.452Z,12.60
2022-12-07T22:16:52.810Z,12.80
2022-12-07T22:19:25.309Z,12.70
2022-12-07T22:21:58.998Z,12.60
2022-12-07T22:24:27.350Z,12.70
2022-12-07T22:27:01.057Z,12.80
2022-12-07T22:29:35.099Z,12.50
2022-12-07T22:32:18.558Z,12.30
2022-12-07T22:35:00.115Z,12.50
2022-12-07T22:37:30.780Z,12.60
2022-12-07T22:40:15.035Z,12.80
2022-12-07T22:42:42.878Z,12.80
2022-12-07T22:45:13.792Z,12.70
2022-12-07T22:47:41.711Z,12.40
2022-12-07T22:50:11.975Z,12.50
2022-12-07T22:52:39.783Z,12.50
2022-12-07T22:55:20.795Z,12.50
2022-12-07T22:57:52.618Z,12.20
2022-12-07T23:00:20.961Z,12.40
2022-12-07T23:02:51.702Z,12.40
2022-12-07T23:05:21.128Z,12.30
2022-12-07T23:07:48.974Z,12.10
2022-12-07T23:10:20.020Z,12.10
2022-12-07T23:13:10.269Z,12.10
2022-12-07T23:15:50.102Z,12.10
2022-12-07T23:18:27.181Z,11.60
2022-12-07T23:20:58.497Z,11.60
2022-12-07T23:23:43.788Z,11.50
2022-12-07T23:26:12.525Z,11.80
2022-12-07T23:28:55.895Z,12.00
2022-12-07T23:31:23.906Z,12.10
2022-12-07T23:37:07.465Z,11.80
2022-12-07T23:39:35.401Z,11.90
2022-12-07T23:42:03.187Z,12.00
2022-12-07T23:44:30.980Z,11.80
2022-12-07T23:47:01.898Z,11.90
2022-12-07T23:49:35.592Z,11.80
2022-12-07T23:52:07.932Z,12.00
2022-12-07T23:54:38.892Z,12.10
2022-12-07T23:57:12.825Z,12.40
2022-12-07T23:59:43.790Z,12.60
